Broadway, NJ

1:01 PM EST on December 09, 2016 (GMT -0500)
Broadway, NJ | | Change Station

Elev 384 ft 40.73 °N, 75.04 °W | Updated 6 minutes ago

Overcast
Overcast
34.8 °F
Feels Like 30 °F
N
5.0
Wind Variable Wind from NW
Gusts 12.0 mph

Today
High -- | Low -- °F
--% Chance of Precip.
Yesterday
High -- | Low -- °F
Precip. -- in
Pressure 30.13 in
Visibility 10.0 miles
Clouds Overcast 6000 ft
Windchill 30 °F
Dew Point 22 °F
Humidity 59%
Rainfall 0.00 in
Snow Depth Not available.
7:12 AM 4:32 PM
Waxing Gibbous, 76% visible
METAR KSMQ 091753Z AUTO 30012G21KT 260V340 10SM OVC060 03/M09 A3012 RMK AO2 SLP202 T00281089 10033 21011 58004
Pressure 30.13 in
Visibility 10.0 miles
Clouds Overcast 6000 ft
Windchill 30 °F
Dew Point 22 °F
Humidity 59%
Rainfall 0.00 in
Snow Depth Not available.
7:12 AM 4:32 PM
Waxing Gibbous, 76% visible
METAR KSMQ 091753Z AUTO 30012G21KT 260V340 10SM OVC060 03/M09 A3012 RMK AO2 SLP202 T00281089 10033 21011 58004

10-Day Weather Forecast

Almanac

Astronomy

Dec. 09, 2016 Rise Set
Actual Time
Civil Twilight
Nautical Twilight
Astronomical Twilight
Moon
Length of Visible Light
Length of Day
Tomorrow will be .
, % of the Moon is Illuminated

Today's Extremes

State Highs State Lows

Community

WunderPhotos

Upload Photos

1,956,499 photos uploaded!

WunderBlog® & News

Nearby

Air Quality

  Air Quality AQ Index Pollutant
Not available.

Snow Depth

Station Depth Elevation

Earthquake Activity

City Distance Mag. Time & Date
Minimum magnitude displayed is 2.5.

Coastal Water Temperatures

Place Temperature

Stations

Nearby Weather Stations

Station Location Temp. Windchill Dew Point Humidity Wind Precip. Elev Updated Type
                   

Watches & Warnings

There are currently no watches in effect.